createdAt,value
2019-03-24T09:56:57.546Z,14.70
2019-03-24T09:59:25.830Z,14.90
2019-03-24T10:04:21.939Z,15.50
2019-03-24T10:09:19.938Z,15.90
2019-03-24T10:11:49.186Z,16.40
2019-03-24T10:19:14.278Z,16.00
2019-03-24T10:21:42.791Z,15.40
2019-03-24T10:24:11.080Z,14.70
2019-03-24T10:26:39.288Z,14.20
2019-03-24T10:29:07.512Z,14.00
2019-03-24T10:31:35.782Z,14.10
2019-03-24T10:34:03.963Z,14.50
2019-03-24T10:36:32.252Z,15.10
2019-03-24T10:39:00.521Z,15.10
2019-03-24T10:41:28.834Z,16.10
2019-03-24T10:43:57.143Z,16.60
2019-03-24T10:46:25.346Z,17.20
2019-03-24T10:48:53.554Z,17.80
2019-03-24T10:51:21.754Z,18.20
2019-03-24T10:53:49.990Z,18.40
2019-03-24T10:56:18.201Z,17.90
2019-03-24T10:58:46.407Z,17.70
2019-03-24T11:01:14.670Z,17.70
2019-03-24T11:03:42.990Z,17.90
2019-03-24T11:06:11.202Z,17.30
2019-03-24T11:08:39.472Z,17.00
2019-03-24T11:11:07.598Z,16.70
2019-03-24T11:13:35.803Z,16.90
2019-03-24T11:16:04.079Z,16.50
2019-03-24T11:18:32.211Z,17.00
2019-03-24T11:21:00.401Z,16.70
2019-03-24T11:23:29.533Z,17.40
2019-03-24T11:25:58.296Z,17.40
2019-03-24T11:28:26.505Z,17.20
2019-03-24T11:30:54.805Z,17.40
2019-03-24T11:33:23.598Z,18.10
2019-03-24T11:35:51.762Z,18.10
2019-03-24T11:38:19.956Z,18.30
2019-03-24T11:40:48.180Z,17.70
2019-03-24T11:43:16.403Z,17.50
2019-03-24T11:45:44.623Z,17.60
2019-03-24T11:48:13.384Z,17.80
2019-03-24T11:50:41.629Z,17.90
2019-03-24T11:53:09.832Z,18.00
2019-03-24T11:55:39.142Z,17.60
2019-03-24T11:58:07.402Z,17.30
2019-03-24T12:00:37.521Z,17.10
2019-03-24T12:03:05.726Z,16.90
2019-03-24T12:05:37.004Z,16.50
2019-03-24T12:08:05.257Z,16.20
2019-03-24T12:10:33.611Z,16.00
2019-03-24T12:13:01.904Z,16.20
2019-03-24T12:15:31.100Z,16.40
2019-03-24T12:17:59.257Z,16.50
2019-03-24T12:20:27.530Z,17.00
2019-03-24T12:22:55.769Z,17.20
2019-03-24T12:25:24.052Z,16.90
2019-03-24T12:27:52.288Z,17.10
2019-03-24T12:30:20.481Z,17.60
2019-03-24T12:32:48.781Z,17.40
2019-03-24T12:35:17.012Z,17.20
2019-03-24T12:37:45.167Z,17.00
2019-03-24T12:40:14.448Z,16.90
2019-03-24T12:42:42.732Z,17.30
2019-03-24T12:45:12.526Z,16.30
2019-03-24T12:47:40.784Z,16.20
2019-03-24T12:50:10.764Z,15.80
2019-03-24T12:52:38.970Z,15.70
2019-03-24T12:55:07.428Z,15.60
2019-03-24T12:57:35.592Z,15.20
2019-03-24T13:00:05.474Z,15.30
2019-03-24T13:02:33.644Z,15.20
2019-03-24T13:05:01.858Z,15.10
2019-03-24T13:07:30.107Z,14.90
2019-03-24T13:09:58.318Z,14.90
2019-03-24T13:12:38.839Z,15.10
2019-03-24T13:15:07.641Z,17.10
2019-03-24T13:17:35.822Z,17.60
2019-03-24T13:20:04.402Z,15.40
2019-03-24T13:22:32.528Z,15.60
2019-03-24T13:25:00.747Z,16.10
2019-03-24T13:27:28.909Z,16.40
2019-03-24T13:29:57.060Z,16.10
2019-03-24T13:32:25.207Z,16.60
2019-03-24T13:34:53.349Z,17.30
2019-03-24T13:37:21.489Z,17.60
2019-03-24T13:39:49.653Z,17.80
2019-03-24T13:42:17.809Z,17.80
2019-03-24T13:44:45.980Z,18.20
2019-03-24T13:47:14.177Z,18.40
2019-03-24T13:49:42.338Z,18.40
2019-03-24T13:52:10.548Z,18.10
2019-03-24T13:54:38.694Z,18.70
2019-03-24T13:57:07.889Z,19.00
2019-03-24T13:59:36.064Z,19.80
2019-03-24T14:02:04.649Z,20.60
2019-03-24T14:04:32.760Z,20.00
2019-03-24T14:07:00.954Z,19.60
2019-03-24T14:09:29.152Z,19.60
2019-03-24T14:11:57.329Z,19.00
2019-03-24T14:14:30.243Z,18.10
2019-03-24T14:16:58.408Z,17.60
2019-03-24T14:19:26.630Z,16.90
2019-03-24T14:21:54.789Z,16.50
2019-03-24T14:24:22.930Z,16.40
2019-03-24T14:26:51.098Z,16.30
2019-03-24T14:29:19.234Z,16.40
2019-03-24T14:31:47.391Z,16.50
2019-03-24T14:34:15.565Z,16.70
2019-03-24T14:36:45.342Z,17.20
2019-03-24T14:39:13.480Z,17.10
2019-03-24T14:41:41.677Z,17.20
2019-03-24T14:44:09.835Z,17.50
2019-03-24T14:46:38.030Z,18.20
2019-03-24T14:49:06.149Z,18.10
2019-03-24T14:51:34.366Z,18.30
2019-03-24T14:54:02.553Z,18.80
2019-03-24T14:56:30.693Z,19.60
2019-03-24T14:58:58.850Z,19.80
2019-03-24T15:01:27.018Z,19.80
2019-03-24T15:03:55.177Z,19.80
2019-03-24T15:08:51.216Z,18.70
2019-03-24T15:11:19.390Z,18.20
2019-03-24T15:13:47.525Z,17.50
2019-03-24T15:16:15.700Z,17.50
2019-03-24T15:18:43.875Z,17.60
2019-03-24T15:21:12.027Z,17.70
2019-03-24T15:23:40.208Z,18.00
2019-03-24T15:26:08.394Z,17.80
2019-03-24T15:28:36.566Z,18.10
2019-03-24T15:31:04.735Z,18.20
2019-03-24T15:33:32.866Z,18.80
2019-03-24T15:36:01.030Z,18.90
2019-03-24T15:38:29.161Z,19.00
2019-03-24T15:40:57.333Z,19.60
2019-03-24T15:43:25.495Z,20.00
2019-03-24T15:45:53.655Z,20.40
2019-03-24T15:48:21.813Z,19.30
2019-03-24T15:50:49.964Z,18.80
2019-03-24T15:53:18.178Z,19.30
2019-03-24T15:55:46.346Z,19.10
2019-03-24T15:58:14.574Z,18.70
2019-03-24T16:00:47.550Z,18.60
2019-03-24T16:03:16.781Z,18.20
2019-03-24T16:05:44.924Z,17.50
2019-03-24T16:08:13.099Z,16.80
2019-03-24T16:10:41.255Z,16.10
2019-03-24T16:13:09.412Z,15.50
2019-03-24T16:15:37.589Z,14.90
2019-03-24T16:18:05.739Z,14.30
2019-03-24T16:20:33.862Z,13.60
2019-03-24T16:23:02.024Z,13.20
2019-03-24T16:25:30.143Z,12.90
2019-03-24T16:27:58.300Z,12.50
2019-03-24T16:30:26.528Z,12.40
2019-03-24T16:35:22.588Z,12.10
2019-03-24T16:37:50.741Z,12.10
2019-03-24T16:40:18.888Z,12.00
2019-03-24T16:42:47.047Z,11.80
2019-03-24T16:45:16.888Z,11.70
2019-03-24T16:47:44.985Z,11.60
2019-03-24T16:50:13.117Z,11.60
2019-03-24T16:52:41.400Z,11.50
2019-03-24T16:55:12.091Z,11.50
2019-03-24T16:57:39.789Z,11.40
2019-03-24T17:00:08.564Z,11.30
2019-03-24T17:02:36.721Z,11.40
2019-03-24T17:05:05.139Z,11.30
2019-03-24T17:07:33.307Z,11.20
2019-03-24T17:10:01.475Z,11.20
2019-03-24T17:12:29.618Z,11.10
2019-03-24T17:14:57.758Z,11.00
2019-03-24T17:17:25.966Z,10.90
2019-03-24T17:19:54.139Z,10.90
2019-03-24T17:22:22.296Z,10.80
2019-03-24T17:24:50.472Z,10.80
2019-03-24T17:27:18.613Z,10.70
2019-03-24T17:29:46.737Z,10.60
2019-03-24T17:32:14.882Z,10.60
2019-03-24T17:34:43.048Z,10.50
2019-03-24T17:37:11.176Z,10.40
2019-03-24T17:39:39.365Z,10.40
2019-03-24T17:42:07.492Z,10.30
2019-03-24T17:47:03.530Z,10.20
2019-03-24T17:49:32.164Z,10.10
2019-03-24T17:52:01.115Z,10.10
2019-03-24T17:54:29.419Z,10.00
2019-03-24T17:56:57.561Z,10.00
2019-03-24T17:59:25.714Z,9.90
2019-03-24T18:01:53.861Z,9.80
2019-03-24T18:04:24.709Z,9.80
2019-03-24T18:06:52.053Z,9.70
2019-03-24T18:09:20.258Z,9.70
2019-03-24T18:11:48.407Z,9.60
2019-03-24T18:14:16.549Z,9.70
2019-03-24T18:16:44.872Z,9.50
2019-03-24T18:19:13.018Z,9.50
2019-03-24T18:21:41.131Z,9.40
2019-03-24T18:26:37.141Z,9.40
2019-03-24T18:29:05.322Z,9.40
2019-03-24T18:31:33.520Z,9.40
2019-03-24T18:34:01.807Z,9.30
2019-03-24T18:36:29.940Z,9.30
2019-03-24T18:38:58.089Z,9.20
2019-03-24T18:41:26.214Z,9.20
2019-03-24T18:43:54.369Z,9.10
2019-03-24T18:46:22.558Z,9.10
2019-03-24T18:48:50.728Z,9.00
2019-03-24T18:51:18.879Z,9.00
2019-03-24T18:53:46.997Z,8.90
2019-03-24T18:56:15.197Z,8.90
2019-03-24T18:58:43.333Z,8.90
2019-03-24T19:01:11.526Z,8.80
2019-03-24T19:03:39.677Z,8.80
2019-03-24T19:06:07.864Z,8.80
2019-03-24T19:08:35.976Z,8.70
2019-03-24T19:11:04.132Z,8.60
2019-03-24T19:13:32.273Z,8.60
2019-03-24T19:16:00.437Z,8.60
2019-03-24T19:18:28.569Z,8.50
2019-03-24T19:20:56.733Z,8.50
2019-03-24T19:23:24.861Z,8.50
2019-03-24T19:28:20.825Z,8.50
2019-03-24T19:30:49.018Z,8.50
2019-03-24T19:33:17.190Z,8.50
2019-03-24T19:35:45.387Z,8.40
2019-03-24T19:38:13.917Z,8.40
2019-03-24T19:40:42.097Z,8.30
2019-03-24T19:43:10.255Z,8.30
2019-03-24T19:45:38.451Z,8.20
2019-03-24T19:48:06.595Z,8.20
2019-03-24T19:50:34.751Z,8.10
2019-03-24T19:53:02.933Z,8.00
2019-03-24T19:55:31.116Z,8.10
2019-03-24T19:57:59.270Z,7.90
2019-03-24T20:00:27.430Z,7.80
2019-03-24T20:02:55.646Z,7.80
2019-03-24T20:07:51.618Z,7.70
2019-03-24T20:10:19.757Z,7.80
2019-03-24T20:12:47.935Z,7.70
2019-03-24T20:15:16.738Z,7.70
2019-03-24T20:17:45.729Z,7.70
2019-03-24T20:20:15.629Z,7.70
2019-03-24T20:22:55.384Z,7.70
2019-03-24T20:25:14.908Z,7.70
2019-03-24T20:27:43.010Z,7.60
2019-03-24T20:30:11.742Z,7.60
2019-03-24T20:32:39.965Z,7.60
2019-03-24T20:35:08.188Z,7.50
2019-03-24T20:37:36.346Z,7.50
2019-03-24T20:40:05.109Z,7.50
2019-03-24T20:42:33.314Z,7.50
2019-03-24T20:45:01.498Z,7.40
2019-03-24T20:47:29.724Z,7.40
2019-03-24T20:49:57.870Z,7.40
2019-03-24T20:52:26.115Z,7.40
2019-03-24T20:54:54.295Z,7.30
2019-03-24T20:57:22.480Z,7.30
2019-03-24T20:59:52.032Z,7.30
2019-03-24T21:02:20.708Z,7.30
2019-03-24T21:04:48.873Z,7.20
2019-03-24T21:07:25.864Z,7.10
2019-03-24T21:09:53.976Z,7.10
2019-03-24T21:12:22.136Z,7.10
2019-03-24T21:14:50.277Z,7.10
2019-03-24T21:17:18.463Z,6.90
2019-03-24T21:22:14.430Z,6.80
2019-03-24T21:24:42.580Z,6.80
2019-03-24T21:27:10.782Z,6.70
2019-03-24T21:29:38.977Z,6.70
2019-03-24T21:32:07.180Z,6.70
2019-03-24T21:34:35.321Z,6.70
2019-03-24T21:37:03.518Z,6.70
2019-03-24T21:39:31.726Z,6.60
2019-03-24T21:41:59.883Z,6.60
2019-03-24T21:44:28.039Z,6.60
2019-03-24T21:46:56.201Z,6.50
2019-03-24T21:49:32.367Z,6.50
2019-03-24T21:52:00.488Z,6.50
2019-03-24T21:54:28.618Z,6.50
2019-03-24T21:56:56.762Z,6.50
2019-03-24T21:59:24.945Z,6.40
2019-03-24T22:01:53.075Z,6.40
2019-03-24T22:04:21.245Z,6.40
2019-03-24T22:06:49.424Z,6.40
2019-03-24T22:09:17.573Z,6.40
2019-03-24T22:11:45.858Z,6.50
